Terminal Aerodrome Forecast
Issued by NWS Houston/Galveston, TX

Home | Current Version | Previous Version | Text Only | Print | Product List | Glossary On
Versions: 1 2 3 4 5 6 7 8 9 10 11 12 13 14 15 16 17 18 19 20 21 22 23 24 25 26 27 28 29 30 31
000
FTUS44 KHGX 170559 AAA
TAFCLL
TAF AMD
KCLL 170559Z 1706/1806 00000KT P6SM BKN005
     FM171100 00000KT 6SM BR SCT009 BKN250
     FM171330 15003KT P6SM SCT019 BKN250
     FM171600 15004KT P6SM VCSH SCT030 SCT250
     FM171900 16008KT P6SM VCTS SCT040CB SCT100 BKN250
     FM180100 14006KT P6SM FEW040 BKN250=

USA.gov is the U.S. government's official web portal to all federal, state and local government web resources and services.